Time,TemperatureF,DewpointF,PressureIn,WindDirection,WindDirectionDegrees,WindSpeedMPH,WindSpeedGustMPH,Humidity,HourlyPrecipIn,Conditions,Clouds,dailyrainin,SoftwareType,DateUTC
2013-07-02 00:00:00,81.6,50.5,29.84,South,173,0.0,0.0,34,0.00,,---,0.00,VWS V13.01,2013-07-02 07:00:00,
2013-07-02 00:30:00,80.9,49.9,29.84,SSW,201,6.0,8.0,34,0.00,,---,0.00,VWS V13.01,2013-07-02 07:30:00,
2013-07-02 01:00:00,80.9,49.9,29.84,South,185,6.0,9.0,34,0.00,,---,0.00,VWS V13.01,2013-07-02 08:00:00,
2013-07-02 01:30:00,80.7,49.0,29.83,SW,216,2.0,10.0,33,0.00,,---,0.00,VWS V13.01,2013-07-02 08:30:00,
2013-07-02 02:00:00,80.2,48.5,29.85,WSW,239,1.0,5.0,33,0.00,,---,0.00,VWS V13.01,2013-07-02 09:00:00,
2013-07-02 02:30:00,80.7,49.0,29.85,SW,220,6.0,9.0,33,0.00,,---,0.00,VWS V13.01,2013-07-02 09:30:00,
2013-07-02 03:00:00,79.4,49.4,29.85,South,188,3.0,9.0,35,0.00,,---,0.00,VWS V13.01,2013-07-02 10:00:00,
2013-07-02 03:30:00,78.8,49.6,29.84,South,176,4.0,8.0,36,0.00,,---,0.00,VWS V13.01,2013-07-02 10:30:00,
2013-07-02 04:01:00,79.1,49.9,29.84,SSW,197,0.0,7.0,36,0.00,,---,0.00,VWS V13.01,2013-07-02 11:01:00,
2013-07-02 04:30:00,78.3,49.9,29.84,SSE,156,0.0,0.0,37,0.00,,---,0.00,VWS V13.01,2013-07-02 11:30:00,
2013-07-02 05:00:00,74.0,48.2,29.85,NE,56,0.0,0.0,40,0.00,,---,0.00,VWS V13.01,2013-07-02 12:00:00,
2013-07-02 05:30:00,72.0,48.9,29.85,NE,56,0.0,0.0,44,0.00,,---,0.00,VWS V13.01,2013-07-02 12:30:00,
2013-07-02 06:00:00,72.0,49.5,29.86,NE,56,0.0,0.0,45,0.00,,---,0.00,VWS V13.01,2013-07-02 13:00:00,
2013-07-02 06:30:00,73.5,50.3,29.86,NE,56,0.0,0.0,44,0.00,,---,0.00,VWS V13.01,2013-07-02 13:30:00,
2013-07-02 07:00:00,75.2,51.8,29.88,NE,56,0.0,0.0,44,0.00,,---,0.00,VWS V13.01,2013-07-02 14:00:00,
2013-07-02 07:30:00,78.4,50.7,29.88,ENE,57,0.0,0.0,38,0.00,,---,0.00,VWS V13.01,2013-07-02 14:30:00,
2013-07-02 08:00:00,82.0,49.3,29.90,SSW,201,0.0,0.0,32,0.00,,---,0.00,VWS V13.01,2013-07-02 15:00:00,
2013-07-02 08:30:00,86.5,48.6,29.90,SW,214,0.0,0.0,27,0.00,,---,0.00,VWS V13.01,2013-07-02 15:30:00,
2013-07-02 09:00:00,89.2,47.7,29.89,SW,226,0.0,0.0,24,0.00,,---,0.00,VWS V13.01,2013-07-02 16:00:00,
2013-07-02 09:30:00,91.8,48.8,29.90,SSE,159,0.0,0.0,23,0.00,,---,0.00,VWS V13.01,2013-07-02 16:30:00,
2013-07-02 10:00:00,93.3,47.6,29.89,West,269,0.0,0.0,21,0.00,,---,0.00,VWS V13.01,2013-07-02 17:00:00,
2013-07-02 10:30:00,96.1,47.2,29.90,WSW,249,0.0,0.0,19,0.00,,---,0.00,VWS V13.01,2013-07-02 17:30:00,
2013-07-02 11:00:00,98.9,46.5,29.91,ESE,120,0.0,0.0,17,0.00,,---,0.00,VWS V13.01,2013-07-02 18:00:00,
2013-07-02 11:30:00,100.5,47.8,29.91,East,98,6.0,14.0,17,0.00,,---,0.00,VWS V13.01,2013-07-02 18:30:00,
2013-07-02 12:00:00,101.3,50.0,29.90,SSE,168,4.0,11.0,18,0.00,,---,0.00,VWS V13.01,2013-07-02 19:00:00,
2013-07-02 12:30:00,102.0,49.0,29.89,SE,132,6.0,15.0,17,0.00,,---,0.00,VWS V13.01,2013-07-02 19:30:00,
2013-07-02 13:00:00,103.0,48.2,29.89,ESE,108,0.0,19.0,16,0.00,,---,0.00,VWS V13.01,2013-07-02 20:00:00,
2013-07-02 13:30:00,103.1,48.3,29.88,South,180,0.0,0.0,16,0.00,,---,0.00,VWS V13.01,2013-07-02 20:30:00,
2013-07-02 14:00:00,102.7,49.6,29.87,WSW,242,0.0,0.0,17,0.00,,---,0.00,VWS V13.01,2013-07-02 21:00:00,
2013-07-02 14:30:00,102.4,52.3,29.86,WSW,244,0.0,0.0,19,0.00,,---,0.00,VWS V13.01,2013-07-02 21:30:00,
2013-07-02 15:00:00,101.3,51.4,29.86,SW,214,0.0,0.0,19,0.00,,---,0.00,VWS V13.01,2013-07-02 22:00:00,
2013-07-02 15:30:00,98.9,52.2,29.85,SSE,166,0.0,0.0,22,0.00,,---,0.00,VWS V13.01,2013-07-02 22:30:00,
2013-07-02 16:00:00,98.4,53.0,29.85,SW,225,0.0,0.0,22,0.00,,---,0.00,VWS V13.01,2013-07-02 23:00:00,
2013-07-02 16:30:00,100.2,51.9,29.84,SW,216,0.0,0.0,20,0.00,,---,0.00,VWS V13.01,2013-07-02 23:30:00,
2013-07-02 17:00:00,98.9,50.9,29.84,South,186,0.0,0.0,20,0.00,,---,0.00,VWS V13.01,2013-07-03 00:00:00,
2013-07-02 17:30:00,97.5,48.4,29.81,South,169,0.0,0.0,19,0.00,,---,0.00,VWS V13.01,2013-07-03 00:30:00,
2013-07-02 18:00:00,95.6,48.2,29.82,SSW,193,0.0,0.0,20,0.00,,---,0.00,VWS V13.01,2013-07-03 01:00:00,
2013-07-02 18:30:00,94.8,48.8,29.81,South,178,0.0,0.0,21,0.00,,---,0.00,VWS V13.01,2013-07-03 01:30:00,
2013-07-02 19:00:00,93.8,49.2,29.82,SSW,197,0.0,0.0,22,0.00,,---,0.00,VWS V13.01,2013-07-03 02:00:00,
2013-07-02 19:30:00,91.6,49.7,29.83,ESE,111,0.0,0.0,24,0.00,,---,0.00,VWS V13.01,2013-07-03 02:30:00,
2013-07-02 20:00:00,87.8,49.7,29.83,South,169,0.0,0.0,27,0.00,,---,0.00,VWS V13.01,2013-07-03 03:00:00,
2013-07-02 20:30:00,85.7,50.7,29.85,South,181,11.0,18.0,30,0.00,,---,0.00,VWS V13.01,2013-07-03 03:30:00,
2013-07-02 21:00:00,85.1,51.1,29.84,SSW,204,5.0,13.0,31,0.00,,---,0.00,VWS V13.01,2013-07-03 04:00:00,
2013-07-02 21:30:00,85.3,51.3,29.84,ESE,112,0.0,6.0,31,0.00,,---,0.00,VWS V13.01,2013-07-03 04:30:00,
2013-07-02 22:00:00,83.8,50.8,29.87,ESE,116,0.0,0.0,32,0.00,,---,0.00,VWS V13.01,2013-07-03 05:00:00,
2013-07-02 22:30:00,84.4,49.6,29.85,SE,136,0.0,0.0,30,0.00,,---,0.00,VWS V13.01,2013-07-03 05:30:00,
2013-07-02 23:00:00,85.3,49.5,29.84,ESE,118,0.0,0.0,29,0.00,,---,0.00,VWS V13.01,2013-07-03 06:00:00,
2013-07-02 23:30:00,84.4,47.8,29.84,ESE,117,0.0,0.0,28,0.00,,---,0.00,VWS V13.01,2013-07-03 06:30:00,